Terminal Aerodrome Forecast
Issued by NWS

Home | Current Version | Previous Version | Graphics & Text | Print | Product List | Glossary On
Versions: 1 2 3 4 5 6 7 8 9 10 11 12 13 14 15 16 17
000
FTUS43 KTOP 300400 AAB
TAFMHK
TAF AMD
KMHK 300402Z 3004/3024 36012G20KT P6SM VCTS SCT020 BKN040CB
     FM300600 35011G17KT P6SM SCT008 OVC015
     FM301800 36009KT P6SM BKN025=

USA.gov is the U.S. government's official web portal to all federal, state and local government web resources and services.